sensor_id;sensor_type;location;lat;lon;timestamp;P1;durP1;ratioP1;P2;durP2;ratioP2
3417;SDS011;68007;51.312;12.372;2023-06-26T00:00:35;5.80;;;4.37;;
3417;SDS011;68007;51.312;12.372;2023-06-26T00:03:03;5.77;;;4.57;;
3417;SDS011;68007;51.312;12.372;2023-06-26T00:05:31;6.30;;;4.43;;
3417;SDS011;68007;51.312;12.372;2023-06-26T00:07:58;7.77;;;4.60;;
3417;SDS011;68007;51.312;12.372;2023-06-26T00:10:26;6.33;;;4.73;;
3417;SDS011;68007;51.312;12.372;2023-06-26T00:12:54;7.30;;;4.53;;
3417;SDS011;68007;51.312;12.372;2023-06-26T00:15:22;7.07;;;4.47;;
3417;SDS011;68007;51.312;12.372;2023-06-26T00:17:50;4.43;;;4.03;;
3417;SDS011;68007;51.312;12.372;2023-06-26T00:20:17;6.03;;;4.73;;
3417;SDS011;68007;51.312;12.372;2023-06-26T00:22:45;9.60;;;4.70;;
3417;SDS011;68007;51.312;12.372;2023-06-26T00:25:13;5.03;;;4.60;;
3417;SDS011;68007;51.312;12.372;2023-06-26T00:27:40;4.90;;;4.47;;
3417;SDS011;68007;51.312;12.372;2023-06-26T00:30:08;4.87;;;4.37;;
3417;SDS011;68007;51.312;12.372;2023-06-26T00:32:38;5.30;;;4.53;;
3417;SDS011;68007;51.312;12.372;2023-06-26T00:35:05;4.83;;;4.30;;
3417;SDS011;68007;51.312;12.372;2023-06-26T00:37:33;6.40;;;4.67;;
3417;SDS011;68007;51.312;12.372;2023-06-26T00:40:01;7.57;;;4.70;;
3417;SDS011;68007;51.312;12.372;2023-06-26T00:42:31;5.40;;;4.80;;
3417;SDS011;68007;51.312;12.372;2023-06-26T00:44:58;8.30;;;4.90;;
3417;SDS011;68007;51.312;12.372;2023-06-26T00:47:26;5.10;;;4.53;;
3417;SDS011;68007;51.312;12.372;2023-06-26T00:49:55;7.00;;;5.20;;
3417;SDS011;68007;51.312;12.372;2023-06-26T00:52:23;5.00;;;4.50;;
3417;SDS011;68007;51.312;12.372;2023-06-26T00:54:51;5.40;;;4.50;;
3417;SDS011;68007;51.312;12.372;2023-06-26T00:57:19;5.57;;;4.83;;
3417;SDS011;68007;51.312;12.372;2023-06-26T00:59:46;6.30;;;4.77;;
3417;SDS011;68007;51.312;12.372;2023-06-26T01:02:15;5.80;;;4.70;;
3417;SDS011;68007;51.312;12.372;2023-06-26T01:04:46;6.47;;;4.27;;
3417;SDS011;68007;51.312;12.372;2023-06-26T01:07:15;7.47;;;5.40;;
3417;SDS011;68007;51.312;12.372;2023-06-26T01:09:44;7.07;;;5.00;;
3417;SDS011;68007;51.312;12.372;2023-06-26T01:12:12;6.83;;;4.57;;
3417;SDS011;68007;51.312;12.372;2023-06-26T01:14:40;5.50;;;4.90;;
3417;SDS011;68007;51.312;12.372;2023-06-26T01:17:09;6.57;;;4.80;;
3417;SDS011;68007;51.312;12.372;2023-06-26T01:19:41;5.40;;;4.27;;
3417;SDS011;68007;51.312;12.372;2023-06-26T01:22:13;6.57;;;5.87;;
3417;SDS011;68007;51.312;12.372;2023-06-26T01:24:49;5.87;;;4.83;;
3417;SDS011;68007;51.312;12.372;2023-06-26T01:27:29;8.23;;;5.20;;
3417;SDS011;68007;51.312;12.372;2023-06-26T01:29:59;5.40;;;4.73;;
3417;SDS011;68007;51.312;12.372;2023-06-26T01:32:29;5.97;;;4.47;;
3417;SDS011;68007;51.312;12.372;2023-06-26T01:34:58;5.30;;;4.67;;
3417;SDS011;68007;51.312;12.372;2023-06-26T01:37:26;6.20;;;4.77;;
3417;SDS011;68007;51.312;12.372;2023-06-26T01:39:54;6.60;;;5.00;;
3417;SDS011;68007;51.312;12.372;2023-06-26T01:42:21;11.13;;;4.90;;
3417;SDS011;68007;51.312;12.372;2023-06-26T01:44:50;5.77;;;5.03;;
3417;SDS011;68007;51.312;12.372;2023-06-26T01:47:21;6.63;;;4.73;;
3417;SDS011;68007;51.312;12.372;2023-06-26T01:49:55;6.03;;;4.47;;
3417;SDS011;68007;51.312;12.372;2023-06-26T01:52:27;6.63;;;5.03;;
3417;SDS011;68007;51.312;12.372;2023-06-26T01:55:02;5.63;;;4.50;;
3417;SDS011;68007;51.312;12.372;2023-06-26T01:57:35;5.40;;;4.90;;
3417;SDS011;68007;51.312;12.372;2023-06-26T02:00:07;6.10;;;4.93;;
3417;SDS011;68007;51.312;12.372;2023-06-26T02:02:36;5.63;;;4.67;;
3417;SDS011;68007;51.312;12.372;2023-06-26T02:05:04;7.63;;;5.30;;
3417;SDS011;68007;51.312;12.372;2023-06-26T02:07:32;7.13;;;4.80;;
3417;SDS011;68007;51.312;12.372;2023-06-26T02:09:59;6.70;;;4.57;;
3417;SDS011;68007;51.312;12.372;2023-06-26T02:12:27;5.17;;;4.67;;
3417;SDS011;68007;51.312;12.372;2023-06-26T02:14:54;11.10;;;4.90;;
3417;SDS011;68007;51.312;12.372;2023-06-26T02:17:23;5.33;;;4.83;;
3417;SDS011;68007;51.312;12.372;2023-06-26T02:19:51;5.43;;;4.87;;
3417;SDS011;68007;51.312;12.372;2023-06-26T02:22:18;5.67;;;4.63;;
3417;SDS011;68007;51.312;12.372;2023-06-26T02:24:46;6.00;;;5.27;;
3417;SDS011;68007;51.312;12.372;2023-06-26T02:27:13;5.53;;;4.93;;
3417;SDS011;68007;51.312;12.372;2023-06-26T02:29:41;5.43;;;4.57;;
3417;SDS011;68007;51.312;12.372;2023-06-26T02:32:09;5.70;;;5.00;;
3417;SDS011;68007;51.312;12.372;2023-06-26T02:34:37;7.47;;;5.10;;
3417;SDS011;68007;51.312;12.372;2023-06-26T02:37:05;6.07;;;5.47;;
3417;SDS011;68007;51.312;12.372;2023-06-26T02:39:33;5.30;;;4.80;;
3417;SDS011;68007;51.312;12.372;2023-06-26T02:42:01;8.50;;;5.63;;
3417;SDS011;68007;51.312;12.372;2023-06-26T02:44:28;5.30;;;4.70;;
3417;SDS011;68007;51.312;12.372;2023-06-26T02:46:56;6.80;;;5.23;;
3417;SDS011;68007;51.312;12.372;2023-06-26T02:49:23;5.60;;;4.90;;
3417;SDS011;68007;51.312;12.372;2023-06-26T02:51:52;6.10;;;5.50;;
3417;SDS011;68007;51.312;12.372;2023-06-26T02:54:20;5.17;;;4.70;;
3417;SDS011;68007;51.312;12.372;2023-06-26T02:56:47;5.67;;;5.13;;
3417;SDS011;68007;51.312;12.372;2023-06-26T02:59:15;6.00;;;5.17;;
3417;SDS011;68007;51.312;12.372;2023-06-26T03:01:43;6.37;;;5.47;;
3417;SDS011;68007;51.312;12.372;2023-06-26T03:04:11;6.43;;;5.83;;
3417;SDS011;68007;51.312;12.372;2023-06-26T03:06:39;8.17;;;6.37;;
3417;SDS011;68007;51.312;12.372;2023-06-26T03:09:08;5.70;;;5.07;;
3417;SDS011;68007;51.312;12.372;2023-06-26T03:11:35;6.17;;;5.57;;
3417;SDS011;68007;51.312;12.372;2023-06-26T03:14:03;8.10;;;5.37;;
3417;SDS011;68007;51.312;12.372;2023-06-26T03:16:30;9.00;;;6.00;;
3417;SDS011;68007;51.312;12.372;2023-06-26T03:18:58;7.33;;;6.30;;
3417;SDS011;68007;51.312;12.372;2023-06-26T03:21:25;7.20;;;5.70;;
3417;SDS011;68007;51.312;12.372;2023-06-26T03:23:53;10.80;;;5.80;;
3417;SDS011;68007;51.312;12.372;2023-06-26T03:26:22;8.30;;;5.80;;
3417;SDS011;68007;51.312;12.372;2023-06-26T03:28:54;14.67;;;6.27;;
3417;SDS011;68007;51.312;12.372;2023-06-26T03:31:21;6.70;;;5.33;;
3417;SDS011;68007;51.312;12.372;2023-06-26T03:33:49;6.00;;;5.37;;
3417;SDS011;68007;51.312;12.372;2023-06-26T03:36:16;10.30;;;5.63;;
3417;SDS011;68007;51.312;12.372;2023-06-26T03:38:44;6.90;;;5.93;;
3417;SDS011;68007;51.312;12.372;2023-06-26T03:41:11;6.70;;;5.30;;
3417;SDS011;68007;51.312;12.372;2023-06-26T03:43:40;6.03;;;5.40;;
3417;SDS011;68007;51.312;12.372;2023-06-26T03:46:07;8.33;;;5.30;;
3417;SDS011;68007;51.312;12.372;2023-06-26T03:48:35;5.87;;;5.27;;
3417;SDS011;68007;51.312;12.372;2023-06-26T03:51:03;10.17;;;5.90;;
3417;SDS011;68007;51.312;12.372;2023-06-26T03:53:32;6.30;;;5.70;;
3417;SDS011;68007;51.312;12.372;2023-06-26T03:56:00;5.77;;;5.23;;
3417;SDS011;68007;51.312;12.372;2023-06-26T03:58:27;9.07;;;6.20;;
3417;SDS011;68007;51.312;12.372;2023-06-26T04:00:56;7.10;;;5.80;;
3417;SDS011;68007;51.312;12.372;2023-06-26T04:03:24;8.97;;;6.00;;
3417;SDS011;68007;51.312;12.372;2023-06-26T04:05:51;7.67;;;6.30;;
3417;SDS011;68007;51.312;12.372;2023-06-26T04:08:19;7.23;;;6.00;;
3417;SDS011;68007;51.312;12.372;2023-06-26T04:10:46;7.40;;;5.77;;
3417;SDS011;68007;51.312;12.372;2023-06-26T04:13:14;6.90;;;6.20;;
3417;SDS011;68007;51.312;12.372;2023-06-26T04:15:42;7.23;;;5.60;;
3417;SDS011;68007;51.312;12.372;2023-06-26T04:18:10;13.20;;;5.73;;
3417;SDS011;68007;51.312;12.372;2023-06-26T04:20:38;8.10;;;6.00;;
3417;SDS011;68007;51.312;12.372;2023-06-26T04:23:07;7.13;;;5.63;;
3417;SDS011;68007;51.312;12.372;2023-06-26T04:25:35;7.90;;;5.50;;
3417;SDS011;68007;51.312;12.372;2023-06-26T04:28:03;8.20;;;6.10;;
3417;SDS011;68007;51.312;12.372;2023-06-26T04:30:31;7.33;;;5.80;;
3417;SDS011;68007;51.312;12.372;2023-06-26T04:32:58;8.60;;;5.80;;
3417;SDS011;68007;51.312;12.372;2023-06-26T04:35:29;6.00;;;5.40;;
3417;SDS011;68007;51.312;12.372;2023-06-26T04:37:56;7.70;;;6.13;;
3417;SDS011;68007;51.312;12.372;2023-06-26T04:40:24;9.37;;;5.93;;
3417;SDS011;68007;51.312;12.372;2023-06-26T04:42:51;9.07;;;5.80;;
3417;SDS011;68007;51.312;12.372;2023-06-26T04:45:19;8.27;;;5.73;;
3417;SDS011;68007;51.312;12.372;2023-06-26T04:47:46;7.77;;;5.83;;
3417;SDS011;68007;51.312;12.372;2023-06-26T04:50:14;6.43;;;5.80;;
3417;SDS011;68007;51.312;12.372;2023-06-26T04:52:45;7.30;;;5.50;;
3417;SDS011;68007;51.312;12.372;2023-06-26T04:55:13;12.50;;;5.40;;
3417;SDS011;68007;51.312;12.372;2023-06-26T04:57:40;7.37;;;6.00;;
3417;SDS011;68007;51.312;12.372;2023-06-26T05:00:08;10.83;;;5.33;;
3417;SDS011;68007;51.312;12.372;2023-06-26T05:02:37;9.00;;;6.27;;
3417;SDS011;68007;51.312;12.372;2023-06-26T05:05:04;6.57;;;5.60;;
3417;SDS011;68007;51.312;12.372;2023-06-26T05:07:32;11.40;;;6.00;;
3417;SDS011;68007;51.312;12.372;2023-06-26T05:10:02;7.17;;;5.47;;
3417;SDS011;68007;51.312;12.372;2023-06-26T05:12:29;6.23;;;5.50;;
3417;SDS011;68007;51.312;12.372;2023-06-26T05:14:57;7.30;;;5.80;;
3417;SDS011;68007;51.312;12.372;2023-06-26T05:17:25;13.53;;;5.30;;
3417;SDS011;68007;51.312;12.372;2023-06-26T05:19:52;11.83;;;6.13;;
3417;SDS011;68007;51.312;12.372;2023-06-26T05:22:19;9.37;;;5.83;;
3417;SDS011;68007;51.312;12.372;2023-06-26T05:24:48;8.23;;;5.87;;
3417;SDS011;68007;51.312;12.372;2023-06-26T05:27:19;7.73;;;5.73;;
3417;SDS011;68007;51.312;12.372;2023-06-26T05:29:47;9.27;;;6.30;;
3417;SDS011;68007;51.312;12.372;2023-06-26T05:32:16;6.57;;;5.87;;
3417;SDS011;68007;51.312;12.372;2023-06-26T05:34:44;8.33;;;6.50;;
3417;SDS011;68007;51.312;12.372;2023-06-26T05:37:16;11.53;;;7.00;;
3417;SDS011;68007;51.312;12.372;2023-06-26T05:39:47;7.97;;;5.80;;
3417;SDS011;68007;51.312;12.372;2023-06-26T05:42:15;6.60;;;5.80;;
3417;SDS011;68007;51.312;12.372;2023-06-26T05:44:45;6.23;;;5.00;;
3417;SDS011;68007;51.312;12.372;2023-06-26T05:47:12;7.20;;;5.50;;
3417;SDS011;68007;51.312;12.372;2023-06-26T05:49:40;8.13;;;6.33;;
3417;SDS011;68007;51.312;12.372;2023-06-26T05:52:08;9.87;;;6.60;;
3417;SDS011;68007;51.312;12.372;2023-06-26T05:54:37;8.80;;;5.90;;
3417;SDS011;68007;51.312;12.372;2023-06-26T05:57:05;7.40;;;5.80;;
3417;SDS011;68007;51.312;12.372;2023-06-26T05:59:32;9.33;;;6.33;;
3417;SDS011;68007;51.312;12.372;2023-06-26T06:02:05;7.57;;;6.30;;
3417;SDS011;68007;51.312;12.372;2023-06-26T06:04:32;8.80;;;6.63;;
3417;SDS011;68007;51.312;12.372;2023-06-26T06:07:01;7.90;;;6.00;;
3417;SDS011;68007;51.312;12.372;2023-06-26T06:09:29;6.90;;;6.20;;
3417;SDS011;68007;51.312;12.372;2023-06-26T06:11:58;6.73;;;6.00;;
3417;SDS011;68007;51.312;12.372;2023-06-26T06:14:27;6.33;;;5.73;;
3417;SDS011;68007;51.312;12.372;2023-06-26T06:16:54;6.00;;;5.40;;
3417;SDS011;68007;51.312;12.372;2023-06-26T06:19:23;7.83;;;5.90;;
3417;SDS011;68007;51.312;12.372;2023-06-26T06:21:51;11.43;;;6.80;;
3417;SDS011;68007;51.312;12.372;2023-06-26T06:24:19;10.93;;;7.07;;
3417;SDS011;68007;51.312;12.372;2023-06-26T06:26:47;7.90;;;6.00;;
3417;SDS011;68007;51.312;12.372;2023-06-26T06:29:14;8.67;;;6.57;;
3417;SDS011;68007;51.312;12.372;2023-06-26T06:31:42;12.33;;;6.37;;
3417;SDS011;68007;51.312;12.372;2023-06-26T06:34:11;7.30;;;6.20;;
3417;SDS011;68007;51.312;12.372;2023-06-26T06:36:40;8.53;;;6.17;;
3417;SDS011;68007;51.312;12.372;2023-06-26T06:39:07;10.53;;;6.83;;
3417;SDS011;68007;51.312;12.372;2023-06-26T06:41:35;7.70;;;6.23;;
3417;SDS011;68007;51.312;12.372;2023-06-26T06:44:03;7.53;;;6.43;;
3417;SDS011;68007;51.312;12.372;2023-06-26T06:46:30;9.80;;;8.03;;
3417;SDS011;68007;51.312;12.372;2023-06-26T06:48:58;11.63;;;6.60;;
3417;SDS011;68007;51.312;12.372;2023-06-26T06:51:26;9.10;;;6.97;;
3417;SDS011;68007;51.312;12.372;2023-06-26T06:53:55;9.27;;;7.07;;
3417;SDS011;68007;51.312;12.372;2023-06-26T06:56:22;12.70;;;6.90;;
3417;SDS011;68007;51.312;12.372;2023-06-26T06:58:50;7.90;;;6.17;;
3417;SDS011;68007;51.312;12.372;2023-06-26T07:01:18;8.70;;;7.10;;
3417;SDS011;68007;51.312;12.372;2023-06-26T07:03:45;8.20;;;6.40;;
3417;SDS011;68007;51.312;12.372;2023-06-26T07:06:13;12.20;;;6.17;;
3417;SDS011;68007;51.312;12.372;2023-06-26T07:08:40;10.33;;;6.77;;
3417;SDS011;68007;51.312;12.372;2023-06-26T07:11:09;29.43;;;6.90;;
3417;SDS011;68007;51.312;12.372;2023-06-26T07:13:36;8.10;;;6.43;;
3417;SDS011;68007;51.312;12.372;2023-06-26T07:16:04;14.80;;;6.60;;
3417;SDS011;68007;51.312;12.372;2023-06-26T07:18:31;9.63;;;6.13;;
3417;SDS011;68007;51.312;12.372;2023-06-26T07:20:59;9.60;;;6.23;;
3417;SDS011;68007;51.312;12.372;2023-06-26T07:23:26;6.90;;;6.07;;
3417;SDS011;68007;51.312;12.372;2023-06-26T07:25:54;10.30;;;6.30;;
3417;SDS011;68007;51.312;12.372;2023-06-26T07:28:23;8.00;;;6.93;;
3417;SDS011;68007;51.312;12.372;2023-06-26T07:30:51;9.60;;;6.70;;
3417;SDS011;68007;51.312;12.372;2023-06-26T07:33:19;8.47;;;6.87;;
3417;SDS011;68007;51.312;12.372;2023-06-26T07:35:46;9.90;;;7.20;;
3417;SDS011;68007;51.312;12.372;2023-06-26T07:38:14;10.80;;;6.30;;
3417;SDS011;68007;51.312;12.372;2023-06-26T07:40:41;7.53;;;6.37;;
3417;SDS011;68007;51.312;12.372;2023-06-26T07:43:09;7.93;;;6.60;;
3417;SDS011;68007;51.312;12.372;2023-06-26T07:45:37;7.90;;;6.83;;
3417;SDS011;68007;51.312;12.372;2023-06-26T07:48:05;9.17;;;7.67;;
3417;SDS011;68007;51.312;12.372;2023-06-26T07:50:33;8.50;;;6.90;;
3417;SDS011;68007;51.312;12.372;2023-06-26T07:53:00;6.40;;;5.80;;
3417;SDS011;68007;51.312;12.372;2023-06-26T07:55:28;7.43;;;6.63;;
3417;SDS011;68007;51.312;12.372;2023-06-26T07:57:55;7.10;;;6.20;;
3417;SDS011;68007;51.312;12.372;2023-06-26T08:00:23;10.00;;;6.43;;
3417;SDS011;68007;51.312;12.372;2023-06-26T08:02:53;6.77;;;6.17;;
3417;SDS011;68007;51.312;12.372;2023-06-26T08:05:20;8.57;;;7.33;;
3417;SDS011;68007;51.312;12.372;2023-06-26T08:07:48;8.03;;;7.00;;
3417;SDS011;68007;51.312;12.372;2023-06-26T08:10:15;8.27;;;7.07;;
3417;SDS011;68007;51.312;12.372;2023-06-26T08:12:43;11.10;;;7.30;;
3417;SDS011;68007;51.312;12.372;2023-06-26T08:15:11;10.93;;;6.70;;
3417;SDS011;68007;51.312;12.372;2023-06-26T08:17:38;9.80;;;7.17;;
3417;SDS011;68007;51.312;12.372;2023-06-26T08:20:08;8.73;;;6.33;;
3417;SDS011;68007;51.312;12.372;2023-06-26T08:22:36;10.00;;;5.80;;
3417;SDS011;68007;51.312;12.372;2023-06-26T08:25:04;8.17;;;6.97;;
3417;SDS011;68007;51.312;12.372;2023-06-26T08:27:32;9.27;;;7.53;;
3417;SDS011;68007;51.312;12.372;2023-06-26T08:29:59;10.03;;;6.83;;
3417;SDS011;68007;51.312;12.372;2023-06-26T08:32:27;7.67;;;6.90;;
3417;SDS011;68007;51.312;12.372;2023-06-26T08:34:54;11.03;;;7.13;;
3417;SDS011;68007;51.312;12.372;2023-06-26T08:37:23;10.63;;;6.13;;
3417;SDS011;68007;51.312;12.372;2023-06-26T08:39:51;10.63;;;6.70;;
3417;SDS011;68007;51.312;12.372;2023-06-26T08:42:18;9.40;;;6.80;;
3417;SDS011;68007;51.312;12.372;2023-06-26T08:44:46;8.37;;;7.03;;
3417;SDS011;68007;51.312;12.372;2023-06-26T08:47:13;8.70;;;6.60;;
3417;SDS011;68007;51.312;12.372;2023-06-26T08:49:43;8.90;;;7.63;;
3417;SDS011;68007;51.312;12.372;2023-06-26T08:52:19;7.90;;;6.77;;
3417;SDS011;68007;51.312;12.372;2023-06-26T08:54:54;8.70;;;6.63;;
3417;SDS011;68007;51.312;12.372;2023-06-26T08:57:25;8.13;;;6.60;;
3417;SDS011;68007;51.312;12.372;2023-06-26T08:59:53;13.07;;;6.73;;
3417;SDS011;68007;51.312;12.372;2023-06-26T09:02:21;7.70;;;6.20;;
3417;SDS011;68007;51.312;12.372;2023-06-26T09:04:49;6.87;;;6.17;;
3417;SDS011;68007;51.312;12.372;2023-06-26T09:07:17;13.50;;;6.53;;
3417;SDS011;68007;51.312;12.372;2023-06-26T09:09:46;7.33;;;6.37;;
3417;SDS011;68007;51.312;12.372;2023-06-26T09:12:13;9.30;;;5.30;;
3417;SDS011;68007;51.312;12.372;2023-06-26T09:14:41;9.13;;;6.23;;
3417;SDS011;68007;51.312;12.372;2023-06-26T09:17:09;9.40;;;6.07;;
3417;SDS011;68007;51.312;12.372;2023-06-26T09:19:37;8.97;;;5.97;;
3417;SDS011;68007;51.312;12.372;2023-06-26T09:22:05;10.50;;;6.50;;
3417;SDS011;68007;51.312;12.372;2023-06-26T09:24:38;7.30;;;6.30;;
3417;SDS011;68007;51.312;12.372;2023-06-26T09:27:09;7.60;;;6.10;;
3417;SDS011;68007;51.312;12.372;2023-06-26T09:29:38;8.27;;;6.40;;
3417;SDS011;68007;51.312;12.372;2023-06-26T09:32:07;12.13;;;6.83;;
3417;SDS011;68007;51.312;12.372;2023-06-26T09:34:35;7.40;;;6.30;;
3417;SDS011;68007;51.312;12.372;2023-06-26T09:37:03;6.93;;;6.23;;
3417;SDS011;68007;51.312;12.372;2023-06-26T09:39:31;7.20;;;5.37;;
3417;SDS011;68007;51.312;12.372;2023-06-26T09:41:59;10.63;;;6.83;;
3417;SDS011;68007;51.312;12.372;2023-06-26T09:44:29;7.07;;;5.93;;
3417;SDS011;68007;51.312;12.372;2023-06-26T09:46:58;10.63;;;6.27;;
3417;SDS011;68007;51.312;12.372;2023-06-26T09:49:25;5.90;;;4.97;;
3417;SDS011;68007;51.312;12.372;2023-06-26T09:51:53;6.90;;;6.20;;
3417;SDS011;68007;51.312;12.372;2023-06-26T09:54:21;7.80;;;6.30;;
3417;SDS011;68007;51.312;12.372;2023-06-26T09:56:50;7.03;;;5.70;;
3417;SDS011;68007;51.312;12.372;2023-06-26T09:59:17;7.37;;;5.70;;
3417;SDS011;68007;51.312;12.372;2023-06-26T10:01:46;9.13;;;6.57;;
3417;SDS011;68007;51.312;12.372;2023-06-26T10:04:14;7.07;;;6.00;;
3417;SDS011;68007;51.312;12.372;2023-06-26T10:06:43;5.80;;;5.20;;
3417;SDS011;68007;51.312;12.372;2023-06-26T10:09:13;6.13;;;5.30;;
3417;SDS011;68007;51.312;12.372;2023-06-26T10:11:45;6.20;;;5.40;;
3417;SDS011;68007;51.312;12.372;2023-06-26T10:14:16;10.60;;;6.27;;
3417;SDS011;68007;51.312;12.372;2023-06-26T10:16:44;8.20;;;5.87;;
3417;SDS011;68007;51.312;12.372;2023-06-26T10:19:15;6.60;;;5.43;;
3417;SDS011;68007;51.312;12.372;2023-06-26T10:21:50;7.27;;;5.97;;
3417;SDS011;68007;51.312;12.372;2023-06-26T10:24:18;6.53;;;5.23;;
3417;SDS011;68007;51.312;12.372;2023-06-26T10:26:49;6.43;;;5.40;;
3417;SDS011;68007;51.312;12.372;2023-06-26T10:29:18;6.97;;;5.60;;
3417;SDS011;68007;51.312;12.372;2023-06-26T10:31:51;8.70;;;5.67;;
3417;SDS011;68007;51.312;12.372;2023-06-26T10:34:22;10.60;;;5.43;;
3417;SDS011;68007;51.312;12.372;2023-06-26T10:36:58;10.50;;;5.80;;
3417;SDS011;68007;51.312;12.372;2023-06-26T10:39:26;6.20;;;5.60;;
3417;SDS011;68007;51.312;12.372;2023-06-26T10:41:54;8.17;;;5.43;;
3417;SDS011;68007;51.312;12.372;2023-06-26T10:44:39;5.73;;;5.00;;
3417;SDS011;68007;51.312;12.372;2023-06-26T10:47:09;5.63;;;5.03;;
3417;SDS011;68007;51.312;12.372;2023-06-26T10:49:37;5.37;;;4.87;;
3417;SDS011;68007;51.312;12.372;2023-06-26T10:52:06;5.90;;;5.17;;
3417;SDS011;68007;51.312;12.372;2023-06-26T10:54:34;6.10;;;5.50;;
3417;SDS011;68007;51.312;12.372;2023-06-26T10:57:03;6.70;;;5.33;;
3417;SDS011;68007;51.312;12.372;2023-06-26T10:59:34;5.97;;;5.37;;
3417;SDS011;68007;51.312;12.372;2023-06-26T11:02:05;10.77;;;5.63;;
3417;SDS011;68007;51.312;12.372;2023-06-26T11:04:38;5.50;;;4.90;;
3417;SDS011;68007;51.312;12.372;2023-06-26T11:07:17;6.20;;;5.07;;
3417;SDS011;68007;51.312;12.372;2023-06-26T11:09:56;5.30;;;4.90;;
3417;SDS011;68007;51.312;12.372;2023-06-26T11:12:35;6.60;;;4.83;;
3417;SDS011;68007;51.312;12.372;2023-06-26T11:15:04;5.83;;;5.23;;
3417;SDS011;68007;51.312;12.372;2023-06-26T11:17:34;5.73;;;5.23;;
3417;SDS011;68007;51.312;12.372;2023-06-26T11:20:03;7.40;;;5.83;;
3417;SDS011;68007;51.312;12.372;2023-06-26T11:22:34;5.53;;;4.97;;
3417;SDS011;68007;51.312;12.372;2023-06-26T11:25:03;10.10;;;5.40;;
3417;SDS011;68007;51.312;12.372;2023-06-26T11:27:37;6.10;;;5.10;;
3417;SDS011;68007;51.312;12.372;2023-06-26T11:30:06;8.00;;;5.20;;
3417;SDS011;68007;51.312;12.372;2023-06-26T11:32:35;7.17;;;5.00;;
3417;SDS011;68007;51.312;12.372;2023-06-26T11:35:05;6.43;;;5.00;;
3417;SDS011;68007;51.312;12.372;2023-06-26T11:37:33;5.33;;;4.83;;
3417;SDS011;68007;51.312;12.372;2023-06-26T11:40:15;6.00;;;5.10;;
3417;SDS011;68007;51.312;12.372;2023-06-26T11:42:44;5.13;;;4.63;;
3417;SDS011;68007;51.312;12.372;2023-06-26T11:45:12;6.27;;;5.40;;
3417;SDS011;68007;51.312;12.372;2023-06-26T11:47:39;7.20;;;5.10;;
3417;SDS011;68007;51.312;12.372;2023-06-26T11:50:14;7.73;;;5.80;;
3417;SDS011;68007;51.312;12.372;2023-06-26T11:52:42;7.27;;;5.20;;
3417;SDS011;68007;51.312;12.372;2023-06-26T11:55:09;5.40;;;4.90;;
3417;SDS011;68007;51.312;12.372;2023-06-26T11:57:37;5.17;;;4.67;;
3417;SDS011;68007;51.312;12.372;2023-06-26T12:00:11;5.70;;;5.07;;
3417;SDS011;68007;51.312;12.372;2023-06-26T12:02:39;5.63;;;5.10;;
3417;SDS011;68007;51.312;12.372;2023-06-26T12:05:08;5.13;;;4.63;;
3417;SDS011;68007;51.312;12.372;2023-06-26T12:07:36;5.30;;;4.73;;
3417;SDS011;68007;51.312;12.372;2023-06-26T12:10:04;7.00;;;4.70;;
3417;SDS011;68007;51.312;12.372;2023-06-26T12:12:32;7.70;;;5.27;;
3417;SDS011;68007;51.312;12.372;2023-06-26T12:15:00;5.20;;;4.70;;
3417;SDS011;68007;51.312;12.372;2023-06-26T12:17:28;6.50;;;4.90;;
3417;SDS011;68007;51.312;12.372;2023-06-26T12:19:56;5.90;;;5.30;;
3417;SDS011;68007;51.312;12.372;2023-06-26T12:22:26;4.87;;;4.40;;
3417;SDS011;68007;51.312;12.372;2023-06-26T12:25:01;5.03;;;4.50;;
3417;SDS011;68007;51.312;12.372;2023-06-26T12:27:29;7.23;;;4.80;;
3417;SDS011;68007;51.312;12.372;2023-06-26T12:29:57;5.07;;;4.53;;
3417;SDS011;68007;51.312;12.372;2023-06-26T12:32:24;5.23;;;4.73;;
3417;SDS011;68007;51.312;12.372;2023-06-26T12:34:52;5.80;;;5.30;;
3417;SDS011;68007;51.312;12.372;2023-06-26T12:37:20;4.93;;;4.43;;
3417;SDS011;68007;51.312;12.372;2023-06-26T12:39:49;5.50;;;5.00;;
3417;SDS011;68007;51.312;12.372;2023-06-26T12:42:18;5.77;;;4.90;;
3417;SDS011;68007;51.312;12.372;2023-06-26T12:44:46;5.17;;;4.53;;
3417;SDS011;68007;51.312;12.372;2023-06-26T12:47:14;5.10;;;4.60;;
3417;SDS011;68007;51.312;12.372;2023-06-26T12:49:43;6.60;;;5.33;;
3417;SDS011;68007;51.312;12.372;2023-06-26T12:52:12;4.97;;;4.57;;
3417;SDS011;68007;51.312;12.372;2023-06-26T12:54:40;6.50;;;4.87;;
3417;SDS011;68007;51.312;12.372;2023-06-26T12:57:10;4.83;;;4.43;;
3417;SDS011;68007;51.312;12.372;2023-06-26T12:59:39;4.73;;;4.33;;
3417;SDS011;68007;51.312;12.372;2023-06-26T13:02:07;5.43;;;4.10;;
3417;SDS011;68007;51.312;12.372;2023-06-26T13:04:36;5.90;;;4.60;;
3417;SDS011;68007;51.312;12.372;2023-06-26T13:07:06;5.77;;;5.17;;
3417;SDS011;68007;51.312;12.372;2023-06-26T13:09:33;4.40;;;4.00;;
3417;SDS011;68007;51.312;12.372;2023-06-26T13:12:02;5.27;;;4.80;;
3417;SDS011;68007;51.312;12.372;2023-06-26T13:14:32;5.20;;;4.60;;
3417;SDS011;68007;51.312;12.372;2023-06-26T13:17:00;4.40;;;3.97;;
3417;SDS011;68007;51.312;12.372;2023-06-26T13:19:27;8.53;;;5.23;;
3417;SDS011;68007;51.312;12.372;2023-06-26T13:21:55;5.43;;;4.93;;
3417;SDS011;68007;51.312;12.372;2023-06-26T13:24:22;5.10;;;4.70;;
3417;SDS011;68007;51.312;12.372;2023-06-26T13:26:50;7.50;;;4.97;;
3417;SDS011;68007;51.312;12.372;2023-06-26T13:29:18;5.17;;;4.67;;
3417;SDS011;68007;51.312;12.372;2023-06-26T13:31:47;5.67;;;5.17;;
3417;SDS011;68007;51.312;12.372;2023-06-26T13:34:20;12.30;;;4.87;;
3417;SDS011;68007;51.312;12.372;2023-06-26T13:36:49;5.60;;;5.10;;
3417;SDS011;68007;51.312;12.372;2023-06-26T13:39:16;5.73;;;4.70;;
3417;SDS011;68007;51.312;12.372;2023-06-26T13:41:44;6.43;;;4.80;;
3417;SDS011;68007;51.312;12.372;2023-06-26T13:44:12;6.20;;;5.10;;
3417;SDS011;68007;51.312;12.372;2023-06-26T13:46:39;5.77;;;4.67;;
3417;SDS011;68007;51.312;12.372;2023-06-26T13:49:08;8.10;;;4.87;;
3417;SDS011;68007;51.312;12.372;2023-06-26T13:51:35;5.27;;;4.83;;
3417;SDS011;68007;51.312;12.372;2023-06-26T13:54:03;6.93;;;4.50;;
3417;SDS011;68007;51.312;12.372;2023-06-26T13:56:31;5.47;;;4.87;;
3417;SDS011;68007;51.312;12.372;2023-06-26T13:58:58;9.53;;;4.63;;
3417;SDS011;68007;51.312;12.372;2023-06-26T14:01:26;5.40;;;4.90;;
3417;SDS011;68007;51.312;12.372;2023-06-26T14:03:54;9.80;;;4.43;;
3417;SDS011;68007;51.312;12.372;2023-06-26T14:06:22;5.17;;;4.40;;
3417;SDS011;68007;51.312;12.372;2023-06-26T14:08:50;4.83;;;4.43;;
3417;SDS011;68007;51.312;12.372;2023-06-26T14:11:17;9.17;;;5.97;;
3417;SDS011;68007;51.312;12.372;2023-06-26T14:13:45;14.80;;;6.60;;
3417;SDS011;68007;51.312;12.372;2023-06-26T14:16:12;16.17;;;6.83;;
3417;SDS011;68007;51.312;12.372;2023-06-26T14:18:40;11.30;;;6.53;;
3417;SDS011;68007;51.312;12.372;2023-06-26T14:21:08;11.70;;;7.63;;
3417;SDS011;68007;51.312;12.372;2023-06-26T14:23:37;18.33;;;7.47;;
3417;SDS011;68007;51.312;12.372;2023-06-26T14:26:05;12.40;;;7.40;;
3417;SDS011;68007;51.312;12.372;2023-06-26T14:28:32;12.23;;;8.00;;
3417;SDS011;68007;51.312;12.372;2023-06-26T14:31:00;13.50;;;7.90;;
3417;SDS011;68007;51.312;12.372;2023-06-26T14:33:27;15.07;;;7.80;;
3417;SDS011;68007;51.312;12.372;2023-06-26T14:35:54;16.40;;;7.50;;
3417;SDS011;68007;51.312;12.372;2023-06-26T14:38:22;12.80;;;8.30;;
3417;SDS011;68007;51.312;12.372;2023-06-26T14:40:51;10.73;;;7.60;;
3417;SDS011;68007;51.312;12.372;2023-06-26T14:43:18;9.27;;;7.43;;
3417;SDS011;68007;51.312;12.372;2023-06-26T14:45:46;13.50;;;7.73;;
3417;SDS011;68007;51.312;12.372;2023-06-26T14:48:14;12.80;;;6.83;;
3417;SDS011;68007;51.312;12.372;2023-06-26T14:50:41;16.97;;;8.27;;
3417;SDS011;68007;51.312;12.372;2023-06-26T14:53:09;16.17;;;7.50;;